createdAt,value
2018-04-14T00:02:05.267Z,82.60
2018-04-14T00:04:33.015Z,82.20
2018-04-14T00:07:00.527Z,82.70
2018-04-14T00:09:28.072Z,82.90
2018-04-14T00:11:56.411Z,82.80
2018-04-14T00:14:23.945Z,82.50
2018-04-14T00:16:51.768Z,83.00
2018-04-14T00:19:19.301Z,82.60
2018-04-14T00:21:46.816Z,83.00
2018-04-14T00:24:14.369Z,83.00
2018-04-14T00:26:41.890Z,82.80
2018-04-14T00:29:09.439Z,82.90
2018-04-14T00:31:36.957Z,83.00
2018-04-14T00:34:04.671Z,83.00
2018-04-14T00:36:32.183Z,82.90
2018-04-14T00:38:59.935Z,82.90
2018-04-14T00:41:28.227Z,82.60
2018-04-14T00:43:55.785Z,82.60
2018-04-14T00:46:23.319Z,82.70
2018-04-14T00:48:51.378Z,82.70
2018-04-14T00:51:18.880Z,83.10
2018-04-14T00:53:48.337Z,82.90
2018-04-14T00:56:15.871Z,82.70
2018-04-14T00:58:43.682Z,82.80
2018-04-14T01:01:11.239Z,83.10
2018-04-14T01:03:38.764Z,82.90
2018-04-14T01:06:06.305Z,82.70
2018-04-14T01:08:33.907Z,82.50
2018-04-14T01:11:01.482Z,83.00
2018-04-14T01:13:29.006Z,83.20
2018-04-14T01:15:56.550Z,83.20
2018-04-14T01:18:24.070Z,82.90
2018-04-14T01:20:51.603Z,82.70
2018-04-14T01:23:19.278Z,83.20
2018-04-14T01:25:46.806Z,82.20
2018-04-14T01:28:14.611Z,82.50
2018-04-14T01:30:42.366Z,82.00
2018-04-14T01:33:09.887Z,82.40
2018-04-14T01:35:37.427Z,82.30
2018-04-14T01:38:04.938Z,81.70
2018-04-14T01:40:32.471Z,82.00
2018-04-14T01:43:01.076Z,81.50
2018-04-14T01:45:28.614Z,81.50
2018-04-14T01:47:56.151Z,81.30
2018-04-14T01:50:23.788Z,81.70
2018-04-14T01:52:51.343Z,80.60
2018-04-14T01:55:18.980Z,79.90
2018-04-14T01:57:46.494Z,80.70
2018-04-14T02:00:14.018Z,80.10
2018-04-14T02:02:41.689Z,80.50
2018-04-14T02:05:09.533Z,80.50
2018-04-14T02:07:37.047Z,80.10
2018-04-14T02:10:04.582Z,80.20
2018-04-14T02:12:32.106Z,80.50
2018-04-14T02:14:59.640Z,80.70
2018-04-14T02:17:27.924Z,79.40
2018-04-14T02:19:56.227Z,79.50
2018-04-14T02:22:23.748Z,79.50
2018-04-14T02:24:52.078Z,79.40
2018-04-14T02:27:19.592Z,79.10
2018-04-14T02:29:47.882Z,79.00
2018-04-14T02:32:16.189Z,79.30
2018-04-14T02:34:43.705Z,79.30
2018-04-14T02:37:12.013Z,78.70
2018-04-14T02:39:42.470Z,78.60
2018-04-14T02:42:12.935Z,78.20
2018-04-14T02:44:41.227Z,77.70
2018-04-14T02:47:09.524Z,77.70
2018-04-14T02:49:37.031Z,77.60
2018-04-14T02:52:04.567Z,76.90
2018-04-14T02:54:32.097Z,78.10
2018-04-14T02:56:59.644Z,77.60
2018-04-14T03:02:20.118Z,76.80
2018-04-14T03:04:47.635Z,77.50
2018-04-14T03:07:15.180Z,78.60
2018-04-14T03:09:42.712Z,78.30
2018-04-14T03:12:10.398Z,77.10
2018-04-14T03:14:38.675Z,77.30
2018-04-14T03:17:06.975Z,78.30
2018-04-14T03:19:34.487Z,78.20
2018-04-14T03:22:02.019Z,78.30
2018-04-14T03:24:29.536Z,78.00
2018-04-14T03:26:57.842Z,77.50
2018-04-14T03:29:25.359Z,77.40
2018-04-14T03:31:52.904Z,77.50
2018-04-14T03:34:20.439Z,78.10
2018-04-14T03:36:47.980Z,77.00
2018-04-14T03:39:15.488Z,77.60
2018-04-14T03:41:43.023Z,77.40
2018-04-14T03:44:10.539Z,76.90
2018-04-14T03:46:38.836Z,76.40
2018-04-14T03:49:06.356Z,76.40
2018-04-14T03:51:33.888Z,76.80
2018-04-14T03:54:01.411Z,76.60
2018-04-14T03:59:22.062Z,76.60
2018-04-14T04:01:49.600Z,77.50
2018-04-14T04:04:17.123Z,77.50
2018-04-14T04:06:45.421Z,76.70
2018-04-14T04:09:12.943Z,76.70
2018-04-14T04:11:40.479Z,77.70
2018-04-14T04:14:07.996Z,77.40
2018-04-14T04:16:35.527Z,78.00
2018-04-14T04:19:14.837Z,77.40
2018-04-14T04:21:54.048Z,76.80
2018-04-14T04:24:33.400Z,77.60
2018-04-14T04:27:01.575Z,77.50
2018-04-14T04:29:29.106Z,77.00
2018-04-14T04:31:56.652Z,77.80
2018-04-14T04:34:24.939Z,77.40
2018-04-14T04:36:52.480Z,77.20
2018-04-14T04:39:20.759Z,77.50
2018-04-14T04:41:49.060Z,77.20
2018-04-14T04:44:16.588Z,77.10
2018-04-14T04:46:44.127Z,77.70
2018-04-14T04:49:11.639Z,78.10
2018-04-14T04:51:39.178Z,77.90
2018-04-14T04:54:07.462Z,78.60
2018-04-14T04:56:35.767Z,77.80
2018-04-14T04:59:03.317Z,77.80
2018-04-14T05:01:30.855Z,78.10
2018-04-14T05:03:58.371Z,77.90
2018-04-14T05:06:25.923Z,78.70
2018-04-14T05:08:54.186Z,78.20
2018-04-14T05:11:21.903Z,78.00
2018-04-14T05:13:49.598Z,78.00
2018-04-14T05:16:18.039Z,78.20
2018-04-14T05:18:46.363Z,79.30
2018-04-14T05:21:13.918Z,78.60
2018-04-14T05:23:41.465Z,78.40
2018-04-14T05:26:09.742Z,77.60
2018-04-14T05:28:37.283Z,77.60
2018-04-14T05:31:04.920Z,77.20
2018-04-14T05:33:32.461Z,77.20
2018-04-14T05:35:59.977Z,77.10
2018-04-14T05:38:27.516Z,77.10
2018-04-14T05:40:55.041Z,77.10
2018-04-14T05:43:22.579Z,77.70
2018-04-14T05:45:50.138Z,76.80
2018-04-14T05:48:17.674Z,76.10
2018-04-14T05:50:45.192Z,76.30
2018-04-14T05:53:12.728Z,77.20
2018-04-14T05:55:40.260Z,75.90
2018-04-14T05:58:07.803Z,76.30
2018-04-14T06:00:35.329Z,76.40
2018-04-14T06:03:02.862Z,76.00
2018-04-14T06:05:30.388Z,75.70
2018-04-14T06:07:57.936Z,76.70
2018-04-14T06:10:25.449Z,75.40
2018-04-14T06:12:52.990Z,75.90
2018-04-14T06:15:20.507Z,75.80
2018-04-14T06:17:48.173Z,75.50
2018-04-14T06:20:16.498Z,73.60
2018-04-14T06:22:44.034Z,73.60
2018-04-14T06:25:12.315Z,73.90
2018-04-14T06:27:40.427Z,73.90
2018-04-14T06:30:08.015Z,74.50
2018-04-14T06:32:35.608Z,73.70
2018-04-14T06:35:03.086Z,73.60
2018-04-14T06:37:30.656Z,73.90
2018-04-14T06:39:58.335Z,72.90
2018-04-14T06:42:25.946Z,72.30
2018-04-14T06:44:53.463Z,71.80
2018-04-14T06:47:20.992Z,70.70
2018-04-14T06:49:49.066Z,69.90
2018-04-14T06:52:16.575Z,69.90
2018-04-14T06:54:44.111Z,69.00
2018-04-14T06:57:11.626Z,67.80
2018-04-14T06:59:39.154Z,67.90
2018-04-14T07:02:06.705Z,67.50
2018-04-14T07:04:34.245Z,65.30
2018-04-14T07:07:01.890Z,65.00
2018-04-14T07:09:30.131Z,65.50
2018-04-14T07:11:59.832Z,67.00
2018-04-14T07:14:28.115Z,65.70
2018-04-14T07:16:55.619Z,65.90
2018-04-14T07:19:24.623Z,66.60
2018-04-14T07:21:52.712Z,65.60
2018-04-14T07:24:21.031Z,66.70
2018-04-14T07:26:49.822Z,66.00
2018-04-14T07:29:17.438Z,66.90
2018-04-14T07:31:46.166Z,67.00
2018-04-14T07:34:13.702Z,66.90
2018-04-14T07:36:43.054Z,67.40
2018-04-14T07:39:10.758Z,66.80
2018-04-14T07:41:38.280Z,65.80
2018-04-14T07:44:06.529Z,65.00
2018-04-14T07:46:34.285Z,64.80
2018-04-14T07:49:01.835Z,64.70
2018-04-14T07:51:29.488Z,64.60
2018-04-14T07:53:57.831Z,63.50
2018-04-14T07:56:25.342Z,63.50
2018-04-14T07:58:52.876Z,64.20
2018-04-14T08:01:20.383Z,64.00
2018-04-14T08:03:48.681Z,65.20
2018-04-14T08:06:16.239Z,65.20
2018-04-14T08:08:43.737Z,65.60
2018-04-14T08:11:11.243Z,64.70
2018-04-14T08:13:38.904Z,65.40
2018-04-14T08:16:06.433Z,65.50
2018-04-14T08:18:33.964Z,64.90
2018-04-14T08:21:01.478Z,65.80
2018-04-14T08:23:29.783Z,65.70
2018-04-14T08:25:57.881Z,65.60
2018-04-14T08:28:25.424Z,65.20
2018-04-14T08:30:53.243Z,65.10
2018-04-14T08:33:20.802Z,64.90
2018-04-14T08:35:48.307Z,65.00
2018-04-14T08:38:15.815Z,64.30
2018-04-14T08:40:43.354Z,64.10
2018-04-14T08:43:10.866Z,63.20
2018-04-14T08:45:39.169Z,64.10
2018-04-14T08:48:06.691Z,64.10
2018-04-14T08:50:34.987Z,65.10
2018-04-14T08:53:02.630Z,65.10
2018-04-14T08:55:30.463Z,63.50
2018-04-14T08:57:58.435Z,63.00
2018-04-14T09:00:25.986Z,62.30
2018-04-14T09:02:53.490Z,62.20
2018-04-14T09:05:21.040Z,60.40
2018-04-14T09:07:48.554Z,60.10
2018-04-14T09:10:16.117Z,59.10
2018-04-14T09:12:43.646Z,58.50
2018-04-14T09:15:17.896Z,59.20
2018-04-14T09:17:45.491Z,59.30
2018-04-14T09:20:13.898Z,58.40
2018-04-14T10:09:05.445Z,55.00
2018-04-14T10:11:33.495Z,52.30
2018-04-14T10:14:01.822Z,53.50
2018-04-14T10:16:29.952Z,53.50
2018-04-14T10:18:57.471Z,55.20
2018-04-14T10:21:25.023Z,55.40
2018-04-14T10:23:53.678Z,55.20
2018-04-14T10:26:21.292Z,55.10
2018-04-14T10:28:48.806Z,55.20
2018-04-14T10:31:18.171Z,55.10
2018-04-14T10:33:45.719Z,55.00
2018-04-14T10:36:13.279Z,55.50
2018-04-14T10:38:40.815Z,55.40
2018-04-14T10:41:08.420Z,55.40
2018-04-14T10:43:36.236Z,55.50
2018-04-14T10:46:04.766Z,56.60
2018-04-14T10:48:32.281Z,56.90
2018-04-14T10:50:59.816Z,56.20
2018-04-14T10:53:27.926Z,56.70
2018-04-14T10:55:55.484Z,57.60
2018-04-14T10:58:23.002Z,58.20
2018-04-14T11:00:50.563Z,57.80
2018-04-14T11:03:18.091Z,56.80
2018-04-14T11:05:46.486Z,57.80
2018-04-14T11:08:14.926Z,57.70
2018-04-14T11:10:42.625Z,55.30
2018-04-14T11:13:11.096Z,57.20
2018-04-14T11:15:39.936Z,57.50
2018-04-14T11:18:07.670Z,56.70
2018-04-14T11:20:35.275Z,56.60
2018-04-14T11:23:02.783Z,57.90
2018-04-14T11:25:31.612Z,58.60
2018-04-14T11:27:59.985Z,57.00
2018-04-14T11:30:27.560Z,56.90
2018-04-14T11:32:55.119Z,55.30
2018-04-14T11:35:22.709Z,56.30
2018-04-14T11:37:50.250Z,55.50
2018-04-14T11:40:17.808Z,56.60
2018-04-14T11:42:45.338Z,56.90
2018-04-14T11:45:12.883Z,57.70
2018-04-14T11:47:41.535Z,57.90
2018-04-14T11:50:09.642Z,57.80
2018-04-14T11:52:37.183Z,57.20
2018-04-14T11:55:04.701Z,56.60
2018-04-14T11:57:32.239Z,56.10
2018-04-14T12:00:00.655Z,54.90
2018-04-14T12:02:28.187Z,54.80
2018-04-14T12:04:56.532Z,56.10
2018-04-14T12:07:24.068Z,56.10
2018-04-14T12:09:51.633Z,57.30
2018-04-14T12:12:19.251Z,55.80
2018-04-14T12:14:47.539Z,56.30
2018-04-14T12:17:15.599Z,56.30
2018-04-14T12:19:43.129Z,55.00
2018-04-14T12:22:10.680Z,55.80
2018-04-14T12:24:38.246Z,55.80
2018-04-14T12:27:05.786Z,55.30
2018-04-14T12:29:39.689Z,55.40
2018-04-14T12:32:08.201Z,55.60
2018-04-14T12:34:35.822Z,56.80
2018-04-14T12:37:03.582Z,56.20
2018-04-14T12:39:31.135Z,56.10
2018-04-14T12:41:58.740Z,56.80
2018-04-14T12:44:26.228Z,56.20
2018-04-14T12:46:53.771Z,56.60
2018-04-14T12:49:21.304Z,57.50
2018-04-14T12:51:49.286Z,59.60
2018-04-14T12:54:16.943Z,58.20
2018-04-14T12:56:45.055Z,58.50
2018-04-14T12:59:13.359Z,58.30
2018-04-14T13:01:40.898Z,57.80
2018-04-14T13:04:15.084Z,57.90
2018-04-14T13:06:42.867Z,57.30
2018-04-14T13:09:10.387Z,57.20
2018-04-14T13:11:38.135Z,57.20
2018-04-14T13:14:05.759Z,58.10
2018-04-14T13:16:37.003Z,58.80
2018-04-14T13:19:05.451Z,59.30
2018-04-14T13:21:33.331Z,57.80
2018-04-14T13:24:01.670Z,58.30
2018-04-14T13:26:29.214Z,58.20
2018-04-14T13:28:56.727Z,56.90
2018-04-14T13:31:24.263Z,56.90
2018-04-14T13:33:51.786Z,57.50
2018-04-14T13:36:19.339Z,57.20
2018-04-14T13:38:46.859Z,57.50
2018-04-14T13:41:15.061Z,57.00
2018-04-14T13:43:42.610Z,57.60
2018-04-14T13:46:11.101Z,57.00
2018-04-14T13:48:39.666Z,56.50
2018-04-14T13:51:07.211Z,57.80
2018-04-14T13:53:35.548Z,57.40
2018-04-14T13:56:03.869Z,57.50
2018-04-14T13:58:31.410Z,57.50
2018-04-14T14:00:59.802Z,57.60
2018-04-14T14:03:27.771Z,56.50
2018-04-14T14:05:56.214Z,56.40
2018-04-14T14:08:24.738Z,57.70
2018-04-14T14:10:54.516Z,57.80
2018-04-14T14:13:22.374Z,56.20
2018-04-14T14:15:49.944Z,56.50
2018-04-14T14:18:18.436Z,57.50
2018-04-14T14:20:47.771Z,56.60
2018-04-14T14:23:16.034Z,57.60
2018-04-14T14:25:44.669Z,58.10
2018-04-14T14:28:12.244Z,58.30
2018-04-14T14:30:40.560Z,57.90
2018-04-14T14:33:08.426Z,57.80
2018-04-14T14:35:35.962Z,57.50
2018-04-14T14:38:04.184Z,57.90
2018-04-14T14:40:31.802Z,57.50
2018-04-14T14:42:59.523Z,58.70
2018-04-14T14:45:27.087Z,58.60
2018-04-14T14:47:54.711Z,58.20
2018-04-14T14:50:27.790Z,57.70
2018-04-14T14:52:55.336Z,58.50
2018-04-14T14:55:22.869Z,59.00
2018-04-14T14:57:50.420Z,57.90
2018-04-14T15:00:17.929Z,58.30
2018-04-14T15:02:45.490Z,58.20
2018-04-14T15:05:13.011Z,58.40
2018-04-14T15:07:40.541Z,57.80
2018-04-14T15:10:08.062Z,58.20
2018-04-14T15:12:35.590Z,58.70
2018-04-14T15:15:03.120Z,58.50
2018-04-14T15:17:30.706Z,58.20
2018-04-14T15:19:58.187Z,58.90
2018-04-14T15:22:26.503Z,58.70
2018-04-14T15:24:54.016Z,58.70
2018-04-14T15:27:21.575Z,59.00
2018-04-14T15:29:49.090Z,59.40
2018-04-14T15:32:16.630Z,59.20
2018-04-14T15:34:44.210Z,58.70
2018-04-14T15:37:11.790Z,58.90
2018-04-14T15:39:39.298Z,59.00
2018-04-14T15:42:06.814Z,59.20
2018-04-14T15:44:34.386Z,59.70
2018-04-14T15:47:01.963Z,59.10
2018-04-14T15:49:29.530Z,59.50
2018-04-14T15:51:57.828Z,59.30
2018-04-14T15:54:25.363Z,59.20
2018-04-14T15:56:53.873Z,58.50
2018-04-14T15:59:21.415Z,58.40
2018-04-14T16:01:49.737Z,59.00
2018-04-14T16:04:17.283Z,59.00
2018-04-14T16:06:44.795Z,58.80
2018-04-14T16:09:12.343Z,59.00
2018-04-14T16:11:39.886Z,59.30
2018-04-14T16:14:07.435Z,59.20
2018-04-14T16:16:34.950Z,59.10
2018-04-14T16:19:02.751Z,59.40
2018-04-14T16:21:30.363Z,59.70
2018-04-14T17:19:07.493Z,56.90
2018-04-14T17:21:35.122Z,57.20
2018-04-14T17:24:03.434Z,59.00
2018-04-14T17:26:30.964Z,59.00
2018-04-14T17:28:59.257Z,60.90
2018-04-14T17:31:26.763Z,60.90
2018-04-14T17:33:54.296Z,61.20
2018-04-14T17:36:21.819Z,61.50
2018-04-14T17:38:50.124Z,64.80
2018-04-14T17:41:17.656Z,64.70
2018-04-14T17:43:45.990Z,62.40
2018-04-14T17:46:13.506Z,62.40
2018-04-14T17:48:41.276Z,62.10
2018-04-14T17:51:08.818Z,62.50
2018-04-14T17:53:37.130Z,63.10
2018-04-14T17:56:04.670Z,63.10
2018-04-14T17:58:32.206Z,63.00
2018-04-14T18:00:59.747Z,62.80
2018-04-14T18:03:27.395Z,62.90
2018-04-14T18:06:41.423Z,63.80
2018-04-14T18:09:08.965Z,63.80
2018-04-14T18:11:36.490Z,66.30
2018-04-14T18:14:05.434Z,64.50
2018-04-14T18:16:32.988Z,65.80
2018-04-14T18:19:00.526Z,65.20
2018-04-14T18:21:28.814Z,65.10
2018-04-14T18:23:56.342Z,65.00
2018-04-14T18:26:23.863Z,65.70
2018-04-14T18:28:51.374Z,65.70
2018-04-14T18:31:18.917Z,67.50
2018-04-14T18:33:46.460Z,65.50
2018-04-14T18:36:14.007Z,65.10
2018-04-14T18:38:41.519Z,65.00
2018-04-14T18:41:09.073Z,65.70
2018-04-14T18:43:37.386Z,65.50
2018-04-14T18:46:04.934Z,65.30
2018-04-14T18:48:32.454Z,65.40
2018-04-14T18:50:59.996Z,65.20
2018-04-14T18:53:27.522Z,65.40
2018-04-14T18:55:55.298Z,65.50
2018-04-14T18:58:22.816Z,65.50
2018-04-14T19:00:51.175Z,66.80
2018-04-14T19:03:18.710Z,66.70
2018-04-14T19:05:46.251Z,66.90
2018-04-14T19:08:13.821Z,66.20
2018-04-14T19:10:41.363Z,66.70
2018-04-14T19:13:08.895Z,68.20
2018-04-14T19:15:36.479Z,68.70
2018-04-14T19:18:04.003Z,67.40
2018-04-14T19:20:31.527Z,67.60
2018-04-14T19:22:59.044Z,67.70
2018-04-14T19:25:27.372Z,68.40
2018-04-14T19:27:54.900Z,68.40
2018-04-14T19:30:22.443Z,68.30
2018-04-14T19:32:49.954Z,68.20
2018-04-14T19:35:17.522Z,68.10
2018-04-14T19:37:45.074Z,68.00
2018-04-14T19:40:12.644Z,67.60
2018-04-14T19:42:40.159Z,68.40
2018-04-14T19:45:07.695Z,69.00
2018-04-14T19:47:35.979Z,68.20
2018-04-14T19:50:03.515Z,68.20
2018-04-14T19:52:31.051Z,69.10
2018-04-14T19:54:58.592Z,68.10
2018-04-14T19:57:26.180Z,69.10
2018-04-14T19:59:53.757Z,69.10
2018-04-14T20:02:21.251Z,68.90
2018-04-14T20:04:48.791Z,69.60
2018-04-14T20:07:16.360Z,69.70
2018-04-14T20:09:43.878Z,69.20
2018-04-14T20:12:12.175Z,68.80
2018-04-14T20:14:39.723Z,68.80
2018-04-14T20:17:07.262Z,69.10
2018-04-14T20:19:34.780Z,71.10
2018-04-14T20:22:02.309Z,70.60
2018-04-14T20:24:29.854Z,71.10
2018-04-14T20:26:57.388Z,69.90
2018-04-14T20:29:24.935Z,72.10
2018-04-14T20:34:43.559Z,69.80
2018-04-14T20:37:11.163Z,71.10
2018-04-14T20:39:38.662Z,70.20
2018-04-14T20:42:12.931Z,70.20
2018-04-14T20:44:41.233Z,72.10
2018-04-14T20:47:08.773Z,72.10
2018-04-14T20:49:37.052Z,72.30
2018-04-14T20:52:05.353Z,72.80
2018-04-14T20:54:32.868Z,72.80
2018-04-14T20:57:01.213Z,72.10
2018-04-14T20:59:28.773Z,72.10
2018-04-14T21:01:56.324Z,73.60
2018-04-14T21:04:23.839Z,74.00
2018-04-14T21:06:52.140Z,73.50
2018-04-14T21:09:19.663Z,73.50
2018-04-14T21:11:47.508Z,73.60
2018-04-14T21:14:15.020Z,74.10
2018-04-14T21:16:43.327Z,73.80
2018-04-14T21:19:10.863Z,73.70
2018-04-14T21:21:38.402Z,74.50
2018-04-14T21:24:06.683Z,73.30
2018-04-14T21:26:35.005Z,74.30
2018-04-14T21:29:02.518Z,74.40
2018-04-14T21:31:30.828Z,73.50
2018-04-14T21:33:58.355Z,73.60
2018-04-14T21:36:26.691Z,74.90
2018-04-14T21:38:54.223Z,74.80
2018-04-14T21:41:25.440Z,74.50
2018-04-14T21:43:53.724Z,73.70
2018-04-14T21:46:22.027Z,74.30
2018-04-14T21:48:49.548Z,74.20
2018-04-14T21:51:17.108Z,74.80
2018-04-14T21:53:44.620Z,73.90
2018-04-14T21:56:12.155Z,73.80
2018-04-14T21:58:39.671Z,74.80
2018-04-14T22:01:07.215Z,74.10
2018-04-14T22:03:34.730Z,73.20
2018-04-14T22:06:03.028Z,73.80
2018-04-14T22:08:30.543Z,73.80
2018-04-14T22:10:58.094Z,73.20
2018-04-14T22:13:25.647Z,74.40
2018-04-14T22:15:53.171Z,73.10
2018-04-14T22:18:20.709Z,72.80
2018-04-14T22:20:48.997Z,73.80
2018-04-14T22:23:16.534Z,73.80
2018-04-14T22:25:44.823Z,74.00
2018-04-14T22:28:13.119Z,73.20
2018-04-14T22:30:40.652Z,73.20
2018-04-14T22:33:08.950Z,74.00
2018-04-14T22:35:36.471Z,74.60
2018-04-14T22:38:04.006Z,73.60
2018-04-14T22:40:31.540Z,74.00
2018-04-14T22:42:59.083Z,74.60
2018-04-14T22:45:26.602Z,74.00
2018-04-14T22:47:54.146Z,74.50
2018-04-14T22:50:21.664Z,73.10
2018-04-14T22:52:49.207Z,73.30
2018-04-14T22:55:17.487Z,74.10
2018-04-14T22:57:45.050Z,73.90
2018-04-14T23:00:12.566Z,74.90
2018-04-14T23:02:40.096Z,74.00
2018-04-14T23:05:07.614Z,75.30
2018-04-14T23:07:35.162Z,75.30
2018-04-14T23:10:02.675Z,76.80
2018-04-14T23:12:30.221Z,76.00
2018-04-14T23:14:57.735Z,75.10
2018-04-14T23:17:25.295Z,76.40
2018-04-14T23:19:52.817Z,75.90
2018-04-14T23:22:20.378Z,76.80
2018-04-14T23:24:47.897Z,76.70
2018-04-14T23:27:15.443Z,75.60
2018-04-14T23:29:42.966Z,75.00
2018-04-14T23:32:10.516Z,74.90
2018-04-14T23:34:38.040Z,75.00
2018-04-14T23:37:06.341Z,75.60
2018-04-14T23:39:33.851Z,75.60
2018-04-14T23:42:01.396Z,75.90
2018-04-14T23:44:28.918Z,75.10
2018-04-14T23:46:56.447Z,75.70
2018-04-14T23:49:24.008Z,75.60
2018-04-14T23:51:51.534Z,74.40
2018-04-14T23:54:19.095Z,74.50
2018-04-14T23:56:46.607Z,74.50
2018-04-14T23:59:14.147Z,74.60
